Shana Des Slops — FFZR — position and weather

sailwx.info

Track history (hours):
 
Tides and Currents Weather Stations Pressure Air Temp Water Temp Dewpoint Dewpoint Depression Visibility Wind Speed Wind Dir Waves Ship Positions

Shana Des Slops

Last reported at 2016-Feb-09 02:31 UTC. Time now 2016-Feb-09 03:32 UTC.
Position N 43°24' E 004°60'.

Length 47 m; draft 3.2 m.

Type: Ship. MMSI: 228003800.

Date/timePositionNaut miles runAvg speedWind from/ knotsBaromVisibWave heightAir tempDewpointWater temp
2016-Feb-09 02:31N 43°24' E 004°60'0 0.0
2016-Feb-09 01:32N 43°24' E 004°60'0 0.0
2016-Feb-09 00:32N 43°24' E 004°60'0 0.0
2016-Feb-08 23:32N 43°24' E 004°60'0 0.0
2016-Feb-08 22:32N 43°24' E 004°60'0 0.0
2016-Feb-08 21:29N 43°24' E 004°60'0 0.0
2016-Feb-08 20:32N 43°24' E 004°60'0 0.0
2016-Feb-08 19:29N 43°24' E 004°60'0 0.0
2016-Feb-08 18:32N 43°24' E 004°60'0 0.5
2016-Feb-08 17:34N 43°24' E 004°59'3 3.1
2016-Feb-08 16:29N 43°21' E 004°57'0 0.0
2016-Feb-08 15:32N 43°21' E 004°57'3 3.0
2016-Feb-08 14:33N 43°24' E 004°59'1 0.9
2016-Feb-08 13:28N 43°24' E 004°60'2 2.6
2016-Feb-08 12:34N 43°22' E 004°58'2 1.5
2016-Feb-08 11:34N 43°21' E 004°57'0 0.1
2016-Feb-08 10:28N 43°21' E 004°57'0 0.0
2016-Feb-08 09:25N 43°21' E 004°57'0 0.0
2016-Feb-08 08:28N 43°21' E 004°57'0 0.0
2016-Feb-08 07:06N 43°21' E 004°57'1 0.3
2016-Feb-08 05:33N 43°21' E 004°58'3 3.3
2016-Feb-08 04:31N 43°24' E 004°60'0 0.0
2016-Feb-08 03:31N 43°24' E 004°60'0 0.0
2016-Feb-08 02:31N 43°24' E 004°60'0 0.0
2016-Feb-08 01:31N 43°24' E 004°60'0 0.0
2016-Feb-08 00:31N 43°24' E 004°60'0 0.0
2016-Feb-07 23:31N 43°24' E 004°60'0 0.0
2016-Feb-07 22:31N 43°24' E 004°60'0 0.0
2016-Feb-07 21:31N 43°24' E 004°60'0 0.0
2016-Feb-07 20:31N 43°24' E 004°60'0 0.0
2016-Feb-07 19:31N 43°24' E 004°60'0 0.0
2016-Feb-07 18:31N 43°24' E 004°60'0 0.0
2016-Feb-07 17:32N 43°24' E 004°60'0 0.0
2016-Feb-07 16:31N 43°24' E 004°60'0 0.0
2016-Feb-07 15:28N 43°24' E 004°60'0 0.0
2016-Feb-07 14:31N 43°24' E 004°60'0 0.0
2016-Feb-07 13:32N 43°24' E 004°60'0 0.0
2016-Feb-07 12:32N 43°24' E 004°60'0 0.0
2016-Feb-07 11:33N 43°24' E 004°60'0 0.0
2016-Feb-07 10:30N 43°24' E 004°60'0 0.0
2016-Feb-07 09:33N 43°24' E 004°60'0 0.0
2016-Feb-07 08:33N 43°24' E 004°60'0 0.0
2016-Feb-07 07:32N 43°24' E 004°60'0 0.0
2016-Feb-07 06:32N 43°24' E 004°60'0 0.0
2016-Feb-07 05:32N 43°24' E 004°60'0 0.0
2016-Feb-07 04:32N 43°24' E 004°60'0 0.0
2016-Feb-07 03:32N 43°24' E 004°60'0 0.0
2016-Feb-07 02:32N 43°24' E 004°60'0 0.0
2016-Feb-07 01:32N 43°24' E 004°60'0 0.0
2016-Feb-07 00:32N 43°24' E 004°60'0 0.0
2016-Feb-06 23:31N 43°24' E 004°60'0 0.0
2016-Feb-06 22:31N 43°24' E 004°60'0 0.0
2016-Feb-06 21:31N 43°24' E 004°60'0 0.0
2016-Feb-06 20:25N 43°24' E 004°60'0 0.0
2016-Feb-06 19:28N 43°24' E 004°60'0 0.0
2016-Feb-06 18:31N 43°24' E 004°60'0 0.0
2016-Feb-06 17:28N 43°24' E 004°60'0 0.0
2016-Feb-06 16:31N 43°24' E 004°60'0 0.0
2016-Feb-06 15:31N 43°24' E 004°60'0 0.0
2016-Feb-06 14:31N 43°24' E 004°60'0 0.0
2016-Feb-06 13:32N 43°24' E 004°60'0 0.0
2016-Feb-06 12:31N 43°24' E 004°60'0 0.0
2016-Feb-06 11:28N 43°24' E 004°60'0 0.0
2016-Feb-06 10:31N 43°24' E 004°60'0 0.0
2016-Feb-06 09:31N 43°24' E 004°60'0 0.0
2016-Feb-06 08:31N 43°24' E 004°60'0 0.0
2016-Feb-06 07:32N 43°24' E 004°60'0 0.0
2016-Feb-06 06:32N 43°24' E 004°60'0 0.0
2016-Feb-06 05:32N 43°24' E 004°60'0 0.0
2016-Feb-06 04:32N 43°24' E 004°60'0 0.0
2016-Feb-06 03:32N 43°24' E 004°60'0 0.0
2016-Feb-06 02:32N 43°24' E 004°60'0 0.0
2016-Feb-06 01:32N 43°24' E 004°60'0 0.0
2016-Feb-06 00:32N 43°24' E 004°60'0 0.0
2016-Feb-05 23:32N 43°24' E 004°60'0 0.0
2016-Feb-05 22:32N 43°24' E 004°60'0 0.0
2016-Feb-05 21:32N 43°24' E 004°60'0 0.0
2016-Feb-05 20:29N 43°24' E 004°60'0 0.0
2016-Feb-05 19:32N 43°24' E 004°60'0 0.0
2016-Feb-05 18:33N 43°24' E 004°60'0 0.0
2016-Feb-05 17:31N 43°24' E 004°60'0 0.0
2016-Feb-05 16:31N 43°24' E 004°60'0 0.0
2016-Feb-05 15:31N 43°24' E 004°60'0 0.0
2016-Feb-05 14:31N 43°24' E 004°60'0 0.0
2016-Feb-05 13:31N 43°24' E 004°60'0 0.0
2016-Feb-05 12:31N 43°24' E 004°60'0 0.0
2016-Feb-05 11:31N 43°24' E 004°60'0 0.0
2016-Feb-05 10:28N 43°24' E 004°60'0 0.0
2016-Feb-05 09:32N 43°24' E 004°60'0 0.0
2016-Feb-05 08:32N 43°24' E 004°60'0 0.0
2016-Feb-05 07:28N 43°24' E 004°60'0 0.0
2016-Feb-05 06:33N 43°24' E 004°60'0 0.0
2016-Feb-05 05:33N 43°24' E 004°60'0 0.0
2016-Feb-05 04:32N 43°24' E 004°60'0 0.0
2016-Feb-05 03:33N 43°24' E 004°60'0 0.0
2016-Feb-05 02:33N 43°24' E 004°60'0 0.0
2016-Feb-05 01:31N 43°24' E 004°60'0 0.0
2016-Feb-05 00:31N 43°24' E 004°60'0 0.0
2016-Feb-04 23:25N 43°24' E 004°60'0 0.0
2016-Feb-04 22:31N 43°24' E 004°60'0 0.0
2016-Feb-04 21:31N 43°24' E 004°60'0 0.0
2016-Feb-04 20:28N 43°24' E 004°60'0 0.0
2016-Feb-04 19:31N 43°24' E 004°60'0 0.0
2016-Feb-04 18:31N 43°24' E 004°60'0 0.0
2016-Feb-04 17:28N 43°24' E 004°60'0 0.0
2016-Feb-04 16:31N 43°24' E 004°60'0 0.0
2016-Feb-04 15:31N 43°24' E 004°60'0 0.0
2016-Feb-04 14:31N 43°24' E 004°60'0 0.0
2016-Feb-04 13:32N 43°24' E 004°60'0 0.0
2016-Feb-04 12:32N 43°24' E 004°60'0 0.0
2016-Feb-04 11:32N 43°24' E 004°60'0 0.0
2016-Feb-04 10:29N 43°24' E 004°60'0 0.0
2016-Feb-04 09:32N 43°24' E 004°60'0 0.0
2016-Feb-04 08:32N 43°24' E 004°60'0 0.0
2016-Feb-04 07:32N 43°24' E 004°60'0 0.0
2016-Feb-04 06:32N 43°24' E 004°60'0 0.0
2016-Feb-04 05:32N 43°24' E 004°60'0 0.0
2016-Feb-04 04:33N 43°24' E 004°60'0 0.0
2016-Feb-04 03:33N 43°24' E 004°60'0 0.0
2016-Feb-04 02:30N 43°24' E 004°60'0 0.0
2016-Feb-04 01:33N 43°24' E 004°60'0 0.0
2016-Feb-04 00:33N 43°24' E 004°60'0 0.0
2016-Feb-03 23:33N 43°24' E 004°60'0 0.0
2016-Feb-03 22:30N 43°24' E 004°60'0 0.0
2016-Feb-03 21:33N 43°24' E 004°60'0 0.0
2016-Feb-03 20:33N 43°24' E 004°60'0 0.0
2016-Feb-03 19:33N 43°24' E 004°60'0 0.0
2016-Feb-03 18:33N 43°24' E 004°60'0 0.0
2016-Feb-03 17:33N 43°24' E 004°60'0 0.0
2016-Feb-03 16:33N 43°24' E 004°60'0 0.0
2016-Feb-03 15:33N 43°24' E 004°60'0 0.1
2016-Feb-03 14:34N 43°24' E 004°60'1 0.6
2016-Feb-03 13:32N 43°24' E 004°59'0 0.0
2016-Feb-03 12:32N 43°24' E 004°59'0 0.0
2016-Feb-03 11:32N 43°24' E 004°59'0 0.0
2016-Feb-03 10:32N 43°24' E 004°59'0 0.0
2016-Feb-03 09:32N 43°24' E 004°59'0 0.0
2016-Feb-03 08:32N 43°24' E 004°59'0 0.0
2016-Feb-03 07:33N 43°24' E 004°59'1 0.7
2016-Feb-03 06:32N 43°24' E 004°60'0 0.0
2016-Feb-03 05:32N 43°24' E 004°60'0 0.0
2016-Feb-03 04:29N 43°24' E 004°60'0 0.0
2016-Feb-03 03:32N 43°24' E 004°60'0 0.0
2016-Feb-03 02:31N 43°24' E 004°60'0 0.0
2016-Feb-03 01:31N 43°24' E 004°60'0 0.0
2016-Feb-03 00:31N 43°24' E 004°60'0 0.0
2016-Feb-02 23:28N 43°24' E 004°60'0 0.0
2016-Feb-02 22:28N 43°24' E 004°60'0 0.0
2016-Feb-02 21:31N 43°24' E 004°60'0 0.0
2016-Feb-02 20:28N 43°24' E 004°60'0 0.0
2016-Feb-02 19:31N 43°24' E 004°60'0 0.0
2016-Feb-02 18:29N 43°24' E 004°60'0 0.0
2016-Feb-02 17:32N 43°24' E 004°60'0 0.0
2016-Feb-02 16:32N 43°24' E 004°60'0 0.0
2016-Feb-02 15:32N 43°24' E 004°60'0 0.0
2016-Feb-02 14:34N 43°24' E 004°60'5 4.8
2016-Feb-02 13:33N 43°25' E 004°53'0 0.0
2016-Feb-02 12:33N 43°25' E 004°53'0 0.0
2016-Feb-02 11:33N 43°25' E 004°53'0 0.0
2016-Feb-02 10:30N 43°25' E 004°53'0 0.0
2016-Feb-02 09:32N 43°25' E 004°53'0 0.0
2016-Feb-02 08:29N 43°25' E 004°53'3 3.4
2016-Feb-02 07:33N 43°24' E 004°57'2 1.8
2016-Feb-02 06:31N 43°24' E 004°60'0 0.0
2016-Feb-02 05:31N 43°24' E 004°60'0 0.0
2016-Feb-02 04:34N 43°24' E 004°60'0 0.0
2016-Feb-02 03:34N 43°24' E 004°60'0 0.0
2016-Feb-02 02:31N 43°24' E 004°60'0 0.0
2016-Feb-02 01:25N 43°24' E 004°60'0 0.0
2016-Feb-02 00:34N 43°24' E 004°60'0 0.0
2016-Feb-01 23:31N 43°24' E 004°60'0 0.5
2016-Feb-01 22:33N 43°24' E 004°60'0 0.0
2016-Feb-01 21:33N 43°24' E 004°60'0 0.0
2016-Feb-01 20:30N 43°24' E 004°60'0 0.2
2016-Feb-01 19:31N 43°24' E 004°60'0 0.0
2016-Feb-01 18:31N 43°24' E 004°60'0 0.0
2016-Feb-01 17:31N 43°24' E 004°60'0 0.0
2016-Feb-01 16:31N 43°24' E 004°60'0 0.0
2016-Feb-01 15:33N 43°24' E 004°60'0 0.3
2016-Feb-01 14:32N 43°24' E 004°60'0 0.0
2016-Feb-01 13:33N 43°24' E 004°60'0 0.0
2016-Feb-01 12:33N 43°24' E 004°60'0 0.0
2016-Feb-01 11:33N 43°24' E 004°60'0 0.0
2016-Feb-01 10:30N 43°24' E 004°60'0 0.0
2016-Feb-01 09:33N 43°24' E 004°60'0 0.0
2016-Feb-01 08:33N 43°24' E 004°60'0 0.0
2016-Feb-01 07:33N 43°24' E 004°60'0 0.0
2016-Feb-01 06:33N 43°24' E 004°60'0 0.0
2016-Feb-01 05:33N 43°24' E 004°60'0 0.0
2016-Feb-01 04:33N 43°24' E 004°60'0 0.0
2016-Feb-01 03:33N 43°24' E 004°60'0 0.0
2016-Feb-01 02:33N 43°24' E 004°60'0 0.0
2016-Feb-01 01:33N 43°24' E 004°60'0 0.0
2016-Feb-01 00:32N 43°24' E 004°60'0 0.0
2016-Jan-31 23:29N 43°24' E 004°60'0 0.0
2016-Jan-31 22:32N 43°24' E 004°60'0 0.0
2016-Jan-31 21:32N 43°24' E 004°60'0 0.0
2016-Jan-31 20:29N 43°24' E 004°60'0 0.0
2016-Jan-31 19:32N 43°24' E 004°60'0 0.0
2016-Jan-31 18:32N 43°24' E 004°60'0 0.0
2016-Jan-31 17:31N 43°24' E 004°60'0 0.0
2016-Jan-31 16:32N 43°24' E 004°60'0 0.0
2016-Jan-31 15:28N 43°24' E 004°60'0 0.0
2016-Jan-31 14:31N 43°24' E 004°60'0 0.0
2016-Jan-31 13:31N 43°24' E 004°60'0 0.0
2016-Jan-31 12:31N 43°24' E 004°60'0 0.0
2016-Jan-31 11:31N 43°24' E 004°60'0 0.0
2016-Jan-31 10:31N 43°24' E 004°60'0 0.0
2016-Jan-31 09:31N 43°24' E 004°60'0 0.0
2016-Jan-31 08:28N 43°24' E 004°60'0 0.0
2016-Jan-31 07:31N 43°24' E 004°60'0 0.0
2016-Jan-31 06:31N 43°24' E 004°60'0 0.0
2016-Jan-31 05:31N 43°24' E 004°60'0 0.0
2016-Jan-31 04:31N 43°24' E 004°60'0 0.0
2016-Jan-31 03:31N 43°24' E 004°60'0 0.0
2016-Jan-31 02:31N 43°24' E 004°60'0 0.0
2016-Jan-31 01:31N 43°24' E 004°60'0 0.0
2016-Jan-31 00:31N 43°24' E 004°60'0 0.0
2016-Jan-30 23:31N 43°24' E 004°60'0 0.0
2016-Jan-30 22:31N 43°24' E 004°60'0 0.0
2016-Jan-30 21:31N 43°24' E 004°60'0 0.0
2016-Jan-30 20:31N 43°24' E 004°60'0 0.0
2016-Jan-30 19:31N 43°24' E 004°60'0 0.0
2016-Jan-30 18:28N 43°24' E 004°60'0 0.0
2016-Jan-30 17:31N 43°24' E 004°60'0 0.0
2016-Jan-30 16:31N 43°24' E 004°60'0 0.0
2016-Jan-30 15:31N 43°24' E 004°60'0 0.0
2016-Jan-30 14:31N 43°24' E 004°60'0 0.0
2016-Jan-30 13:31N 43°24' E 004°60'0 0.0
2016-Jan-30 12:31N 43°24' E 004°60'0 0.0
2016-Jan-30 11:31N 43°24' E 004°60'0 0.0
2016-Jan-30 10:31N 43°24' E 004°60'0 0.0
2016-Jan-30 09:31N 43°24' E 004°60'0 0.0
2016-Jan-30 08:33N 43°24' E 004°60'0 0.0
2016-Jan-30 07:33N 43°24' E 004°60'0 0.0
2016-Jan-30 06:33N 43°24' E 004°60'0 0.0
2016-Jan-30 05:30N 43°24' E 004°60'0 0.0
2016-Jan-30 04:33N 43°24' E 004°60'0 0.0
2016-Jan-30 03:33N 43°24' E 004°60'0 0.0
2016-Jan-30 02:33N 43°24' E 004°60'  
Track history (hours):
 
Tides and Currents Weather Stations Pressure Air Temp Water Temp Dewpoint Dewpoint Depression Visibility Wind Speed Wind Dir Waves Ship Positions

Shana Des Slops

Last reported at 2016-Feb-09 02:31 UTC. Time now 2016-Feb-09 03:32 UTC.
Position N 43°24' E 004°60'.

Length 47 m; draft 3.2 m.

Type: Ship. MMSI: 228003800.

Date/timePositionNaut miles runAvg speedWind from/ knotsBaromVisibWave heightAir tempDewpointWater temp
2016-Feb-09 02:31N 43°24' E 004°60'0 0.0
2016-Feb-09 01:32N 43°24' E 004°60'0 0.0
2016-Feb-09 00:32N 43°24' E 004°60'0 0.0
2016-Feb-08 23:32N 43°24' E 004°60'0 0.0
2016-Feb-08 22:32N 43°24' E 004°60'0 0.0
2016-Feb-08 21:29N 43°24' E 004°60'0 0.0
2016-Feb-08 20:32N 43°24' E 004°60'0 0.0
2016-Feb-08 19:29N 43°24' E 004°60'0 0.0
2016-Feb-08 18:32N 43°24' E 004°60'0 0.5
2016-Feb-08 17:34N 43°24' E 004°59'3 3.1
2016-Feb-08 16:29N 43°21' E 004°57'0 0.0
2016-Feb-08 15:32N 43°21' E 004°57'3 3.0
2016-Feb-08 14:33N 43°24' E 004°59'1 0.9
2016-Feb-08 13:28N 43°24' E 004°60'2 2.6
2016-Feb-08 12:34N 43°22' E 004°58'2 1.5
2016-Feb-08 11:34N 43°21' E 004°57'0 0.1
2016-Feb-08 10:28N 43°21' E 004°57'0 0.0
2016-Feb-08 09:25N 43°21' E 004°57'0 0.0
2016-Feb-08 08:28N 43°21' E 004°57'0 0.0
2016-Feb-08 07:06N 43°21' E 004°57'1 0.3
2016-Feb-08 05:33N 43°21' E 004°58'3 3.3
2016-Feb-08 04:31N 43°24' E 004°60'0 0.0
2016-Feb-08 03:31N 43°24' E 004°60'0 0.0
2016-Feb-08 02:31N 43°24' E 004°60'0 0.0
2016-Feb-08 01:31N 43°24' E 004°60'0 0.0
2016-Feb-08 00:31N 43°24' E 004°60'0 0.0
2016-Feb-07 23:31N 43°24' E 004°60'0 0.0
2016-Feb-07 22:31N 43°24' E 004°60'0 0.0
2016-Feb-07 21:31N 43°24' E 004°60'0 0.0
2016-Feb-07 20:31N 43°24' E 004°60'0 0.0
2016-Feb-07 19:31N 43°24' E 004°60'0 0.0
2016-Feb-07 18:31N 43°24' E 004°60'0 0.0
2016-Feb-07 17:32N 43°24' E 004°60'0 0.0
2016-Feb-07 16:31N 43°24' E 004°60'0 0.0
2016-Feb-07 15:28N 43°24' E 004°60'0 0.0
2016-Feb-07 14:31N 43°24' E 004°60'0 0.0
2016-Feb-07 13:32N 43°24' E 004°60'0 0.0
2016-Feb-07 12:32N 43°24' E 004°60'0 0.0
2016-Feb-07 11:33N 43°24' E 004°60'0 0.0
2016-Feb-07 10:30N 43°24' E 004°60'0 0.0
2016-Feb-07 09:33N 43°24' E 004°60'0 0.0
2016-Feb-07 08:33N 43°24' E 004°60'0 0.0
2016-Feb-07 07:32N 43°24' E 004°60'0 0.0
2016-Feb-07 06:32N 43°24' E 004°60'0 0.0
2016-Feb-07 05:32N 43°24' E 004°60'0 0.0
2016-Feb-07 04:32N 43°24' E 004°60'0 0.0
2016-Feb-07 03:32N 43°24' E 004°60'0 0.0
2016-Feb-07 02:32N 43°24' E 004°60'0 0.0
2016-Feb-07 01:32N 43°24' E 004°60'0 0.0
2016-Feb-07 00:32N 43°24' E 004°60'0 0.0
2016-Feb-06 23:31N 43°24' E 004°60'0 0.0
2016-Feb-06 22:31N 43°24' E 004°60'0 0.0
2016-Feb-06 21:31N 43°24' E 004°60'0 0.0
2016-Feb-06 20:25N 43°24' E 004°60'0 0.0
2016-Feb-06 19:28N 43°24' E 004°60'0 0.0
2016-Feb-06 18:31N 43°24' E 004°60'0 0.0
2016-Feb-06 17:28N 43°24' E 004°60'0 0.0
2016-Feb-06 16:31N 43°24' E 004°60'0 0.0
2016-Feb-06 15:31N 43°24' E 004°60'0 0.0
2016-Feb-06 14:31N 43°24' E 004°60'0 0.0
2016-Feb-06 13:32N 43°24' E 004°60'0 0.0
2016-Feb-06 12:31N 43°24' E 004°60'0 0.0
2016-Feb-06 11:28N 43°24' E 004°60'0 0.0
2016-Feb-06 10:31N 43°24' E 004°60'0 0.0
2016-Feb-06 09:31N 43°24' E 004°60'0 0.0
2016-Feb-06 08:31N 43°24' E 004°60'0 0.0
2016-Feb-06 07:32N 43°24' E 004°60'0 0.0
2016-Feb-06 06:32N 43°24' E 004°60'0 0.0
2016-Feb-06 05:32N 43°24' E 004°60'0 0.0
2016-Feb-06 04:32N 43°24' E 004°60'0 0.0
2016-Feb-06 03:32N 43°24' E 004°60'0 0.0
2016-Feb-06 02:32N 43°24' E 004°60'0 0.0
2016-Feb-06 01:32N 43°24' E 004°60'0 0.0
2016-Feb-06 00:32N 43°24' E 004°60'0 0.0
2016-Feb-05 23:32N 43°24' E 004°60'0 0.0
2016-Feb-05 22:32N 43°24' E 004°60'0 0.0
2016-Feb-05 21:32N 43°24' E 004°60'0 0.0
2016-Feb-05 20:29N 43°24' E 004°60'0 0.0
2016-Feb-05 19:32N 43°24' E 004°60'0 0.0
2016-Feb-05 18:33N 43°24' E 004°60'0 0.0
2016-Feb-05 17:31N 43°24' E 004°60'0 0.0
2016-Feb-05 16:31N 43°24' E 004°60'0 0.0
2016-Feb-05 15:31N 43°24' E 004°60'0 0.0
2016-Feb-05 14:31N 43°24' E 004°60'0 0.0
2016-Feb-05 13:31N 43°24' E 004°60'0 0.0
2016-Feb-05 12:31N 43°24' E 004°60'0 0.0
2016-Feb-05 11:31N 43°24' E 004°60'0 0.0
2016-Feb-05 10:28N 43°24' E 004°60'0 0.0
2016-Feb-05 09:32N 43°24' E 004°60'0 0.0
2016-Feb-05 08:32N 43°24' E 004°60'0 0.0
2016-Feb-05 07:28N 43°24' E 004°60'0 0.0
2016-Feb-05 06:33N 43°24' E 004°60'0 0.0
2016-Feb-05 05:33N 43°24' E 004°60'0 0.0
2016-Feb-05 04:32N 43°24' E 004°60'0 0.0
2016-Feb-05 03:33N 43°24' E 004°60'0 0.0
2016-Feb-05 02:33N 43°24' E 004°60'0 0.0
2016-Feb-05 01:31N 43°24' E 004°60'0 0.0
2016-Feb-05 00:31N 43°24' E 004°60'0 0.0
2016-Feb-04 23:25N 43°24' E 004°60'0 0.0
2016-Feb-04 22:31N 43°24' E 004°60'0 0.0
2016-Feb-04 21:31N 43°24' E 004°60'0 0.0
2016-Feb-04 20:28N 43°24' E 004°60'0 0.0
2016-Feb-04 19:31N 43°24' E 004°60'0 0.0
2016-Feb-04 18:31N 43°24' E 004°60'0 0.0
2016-Feb-04 17:28N 43°24' E 004°60'0 0.0
2016-Feb-04 16:31N 43°24' E 004°60'0 0.0
2016-Feb-04 15:31N 43°24' E 004°60'0 0.0
2016-Feb-04 14:31N 43°24' E 004°60'0 0.0
2016-Feb-04 13:32N 43°24' E 004°60'0 0.0
2016-Feb-04 12:32N 43°24' E 004°60'0 0.0
2016-Feb-04 11:32N 43°24' E 004°60'0 0.0
2016-Feb-04 10:29N 43°24' E 004°60'0 0.0
2016-Feb-04 09:32N 43°24' E 004°60'0 0.0
2016-Feb-04 08:32N 43°24' E 004°60'0 0.0
2016-Feb-04 07:32N 43°24' E 004°60'0 0.0
2016-Feb-04 06:32N 43°24' E 004°60'0 0.0
2016-Feb-04 05:32N 43°24' E 004°60'0 0.0
2016-Feb-04 04:33N 43°24' E 004°60'0 0.0
2016-Feb-04 03:33N 43°24' E 004°60'0 0.0
2016-Feb-04 02:30N 43°24' E 004°60'0 0.0
2016-Feb-04 01:33N 43°24' E 004°60'0 0.0
2016-Feb-04 00:33N 43°24' E 004°60'0 0.0
2016-Feb-03 23:33N 43°24' E 004°60'0 0.0
2016-Feb-03 22:30N 43°24' E 004°60'0 0.0
2016-Feb-03 21:33N 43°24' E 004°60'0 0.0
2016-Feb-03 20:33N 43°24' E 004°60'0 0.0
2016-Feb-03 19:33N 43°24' E 004°60'0 0.0
2016-Feb-03 18:33N 43°24' E 004°60'0 0.0
2016-Feb-03 17:33N 43°24' E 004°60'0 0.0
2016-Feb-03 16:33N 43°24' E 004°60'0 0.0
2016-Feb-03 15:33N 43°24' E 004°60'0 0.1
2016-Feb-03 14:34N 43°24' E 004°60'1 0.6
2016-Feb-03 13:32N 43°24' E 004°59'0 0.0
2016-Feb-03 12:32N 43°24' E 004°59'0 0.0
2016-Feb-03 11:32N 43°24' E 004°59'0 0.0
2016-Feb-03 10:32N 43°24' E 004°59'0 0.0
2016-Feb-03 09:32N 43°24' E 004°59'0 0.0
2016-Feb-03 08:32N 43°24' E 004°59'0 0.0
2016-Feb-03 07:33N 43°24' E 004°59'1 0.7
2016-Feb-03 06:32N 43°24' E 004°60'0 0.0
2016-Feb-03 05:32N 43°24' E 004°60'0 0.0
2016-Feb-03 04:29N 43°24' E 004°60'0 0.0
2016-Feb-03 03:32N 43°24' E 004°60'0 0.0
2016-Feb-03 02:31N 43°24' E 004°60'0 0.0
2016-Feb-03 01:31N 43°24' E 004°60'0 0.0
2016-Feb-03 00:31N 43°24' E 004°60'0 0.0
2016-Feb-02 23:28N 43°24' E 004°60'0 0.0
2016-Feb-02 22:28N 43°24' E 004°60'0 0.0
2016-Feb-02 21:31N 43°24' E 004°60'0 0.0
2016-Feb-02 20:28N 43°24' E 004°60'0 0.0
2016-Feb-02 19:31N 43°24' E 004°60'0 0.0
2016-Feb-02 18:29N 43°24' E 004°60'0 0.0
2016-Feb-02 17:32N 43°24' E 004°60'0 0.0
2016-Feb-02 16:32N 43°24' E 004°60'0 0.0
2016-Feb-02 15:32N 43°24' E 004°60'0 0.0
2016-Feb-02 14:34N 43°24' E 004°60'5 4.8
2016-Feb-02 13:33N 43°25' E 004°53'0 0.0
2016-Feb-02 12:33N 43°25' E 004°53'0 0.0
2016-Feb-02 11:33N 43°25' E 004°53'0 0.0
2016-Feb-02 10:30N 43°25' E 004°53'0 0.0
2016-Feb-02 09:32N 43°25' E 004°53'0 0.0
2016-Feb-02 08:29N 43°25' E 004°53'3 3.4
2016-Feb-02 07:33N 43°24' E 004°57'2 1.8
2016-Feb-02 06:31N 43°24' E 004°60'0 0.0
2016-Feb-02 05:31N 43°24' E 004°60'0 0.0
2016-Feb-02 04:34N 43°24' E 004°60'0 0.0
2016-Feb-02 03:34N 43°24' E 004°60'0 0.0
2016-Feb-02 02:31N 43°24' E 004°60'0 0.0
2016-Feb-02 01:25N 43°24' E 004°60'0 0.0
2016-Feb-02 00:34N 43°24' E 004°60'0 0.0
2016-Feb-01 23:31N 43°24' E 004°60'0 0.5
2016-Feb-01 22:33N 43°24' E 004°60'0 0.0
2016-Feb-01 21:33N 43°24' E 004°60'0 0.0
2016-Feb-01 20:30N 43°24' E 004°60'0 0.2
2016-Feb-01 19:31N 43°24' E 004°60'0 0.0
2016-Feb-01 18:31N 43°24' E 004°60'0 0.0
2016-Feb-01 17:31N 43°24' E 004°60'0 0.0
2016-Feb-01 16:31N 43°24' E 004°60'0 0.0
2016-Feb-01 15:33N 43°24' E 004°60'0 0.3
2016-Feb-01 14:32N 43°24' E 004°60'0 0.0
2016-Feb-01 13:33N 43°24' E 004°60'0 0.0
2016-Feb-01 12:33N 43°24' E 004°60'0 0.0
2016-Feb-01 11:33N 43°24' E 004°60'0 0.0
2016-Feb-01 10:30N 43°24' E 004°60'0 0.0
2016-Feb-01 09:33N 43°24' E 004°60'0 0.0
2016-Feb-01 08:33N 43°24' E 004°60'0 0.0
2016-Feb-01 07:33N 43°24' E 004°60'0 0.0
2016-Feb-01 06:33N 43°24' E 004°60'0 0.0
2016-Feb-01 05:33N 43°24' E 004°60'0 0.0
2016-Feb-01 04:33N 43°24' E 004°60'0 0.0
2016-Feb-01 03:33N 43°24' E 004°60'0 0.0
2016-Feb-01 02:33N 43°24' E 004°60'0 0.0
2016-Feb-01 01:33N 43°24' E 004°60'0 0.0
2016-Feb-01 00:32N 43°24' E 004°60'0 0.0
2016-Jan-31 23:29N 43°24' E 004°60'0 0.0
2016-Jan-31 22:32N 43°24' E 004°60'0 0.0
2016-Jan-31 21:32N 43°24' E 004°60'0 0.0
2016-Jan-31 20:29N 43°24' E 004°60'0 0.0
2016-Jan-31 19:32N 43°24' E 004°60'0 0.0
2016-Jan-31 18:32N 43°24' E 004°60'0 0.0
2016-Jan-31 17:31N 43°24' E 004°60'0 0.0
2016-Jan-31 16:32N 43°24' E 004°60'0 0.0
2016-Jan-31 15:28N 43°24' E 004°60'0 0.0
2016-Jan-31 14:31N 43°24' E 004°60'0 0.0
2016-Jan-31 13:31N 43°24' E 004°60'0 0.0
2016-Jan-31 12:31N 43°24' E 004°60'0 0.0
2016-Jan-31 11:31N 43°24' E 004°60'0 0.0
2016-Jan-31 10:31N 43°24' E 004°60'0 0.0
2016-Jan-31 09:31N 43°24' E 004°60'0 0.0
2016-Jan-31 08:28N 43°24' E 004°60'0 0.0
2016-Jan-31 07:31N 43°24' E 004°60'0 0.0
2016-Jan-31 06:31N 43°24' E 004°60'0 0.0
2016-Jan-31 05:31N 43°24' E 004°60'0 0.0
2016-Jan-31 04:31N 43°24' E 004°60'0 0.0
2016-Jan-31 03:31N 43°24' E 004°60'0 0.0
2016-Jan-31 02:31N 43°24' E 004°60'0 0.0
2016-Jan-31 01:31N 43°24' E 004°60'0 0.0
2016-Jan-31 00:31N 43°24' E 004°60'0 0.0
2016-Jan-30 23:31N 43°24' E 004°60'0 0.0
2016-Jan-30 22:31N 43°24' E 004°60'0 0.0
2016-Jan-30 21:31N 43°24' E 004°60'0 0.0
2016-Jan-30 20:31N 43°24' E 004°60'0 0.0
2016-Jan-30 19:31N 43°24' E 004°60'0 0.0
2016-Jan-30 18:28N 43°24' E 004°60'0 0.0
2016-Jan-30 17:31N 43°24' E 004°60'0 0.0
2016-Jan-30 16:31N 43°24' E 004°60'0 0.0
2016-Jan-30 15:31N 43°24' E 004°60'0 0.0
2016-Jan-30 14:31N 43°24' E 004°60'0 0.0
2016-Jan-30 13:31N 43°24' E 004°60'0 0.0
2016-Jan-30 12:31N 43°24' E 004°60'0 0.0
2016-Jan-30 11:31N 43°24' E 004°60'0 0.0
2016-Jan-30 10:31N 43°24' E 004°60'0 0.0
2016-Jan-30 09:31N 43°24' E 004°60'0 0.0
2016-Jan-30 08:33N 43°24' E 004°60'0 0.0
2016-Jan-30 07:33N 43°24' E 004°60'0 0.0
2016-Jan-30 06:33N 43°24' E 004°60'0 0.0
2016-Jan-30 05:30N 43°24' E 004°60'0 0.0
2016-Jan-30 04:33N 43°24' E 004°60'0 0.0
2016-Jan-30 03:33N 43°24' E 004°60'0 0.0
2016-Jan-30 02:33N 43°24' E 004°60'  

Dump ship's entire track history